Station: Bedourie

  Atmospheric Gas Attenuation - ITU Rec 676-11   --------------- db/100km ---------------
Date Time Temp RH % AH g/m3 Dew Point Wind Direction Speed kph Gust kph Barometer mB Rainfall Since 9am 24GHz 47GHz 76GHz 122GHz 134GHz 241GHz
26 09:00 24.7 19 4.3 0 7 1008.7 0 10.2 17.2 20.9 54.2 40.2 135.5
25 09:00 25.5 14 3.31 -3.9 20 1010 0 8.1 16.0 18.0 46.2 30.6 101.6
24 09:00 24.9 22 5.04 1.6 17 1010.9 0 11.7 18.2 23.1 60.0 47.4 161.0
23 06:00 28.6 27 7.59 8.1 7 1010 16.8 20.6 29.8 78.0 70.8 243.3
22 09:00 1013.1
21 09:00 32.9 35 12.4 15.5 7 1008.7 0 26.5 26.0 43.9 115.7 118.5 411.1
20 09:00 30.4 47 14.57 18.1 6 1009.5 3 31.2 30.0 53.4 141.1 149.0 517.5
19 09:00 31.6 39 12.89 16 7 1009.4 0 27.6 27.1 46.4 122.4 126.3 438.2
18 09:00 31.2 35 11.32 14.1 15 1010.2 0 24.4 25.0 41.1 108.2 108.7 376.5
17 09:00 31.6 9 1009.7 0
16 09:00 32.4 31 10.69 13.4 24 1008.1 0 23.0 23.7 38.3 100.7 99.9 345.9
15 09:00 28.2 27 7.42 7.7 19 1009.4 0 16.5 20.4 29.4 76.9 69.3 238.2
12 09:00 34 43 16.14 19.7 9 1005.8 0 34.2 31.1 56.8 150.2 161.3 560.7
11 09:00 33.4 7 1005 0
10 09:00 35.4 23 9.29 11.6 4 1005.6 0 20.0 21.1 32.4 85.2 81.6 282.3
09 09:00 34.5 28 10.79 13.8 9 1006.6 0 23.1 23.3 37.6 98.9 98.3 340.6
08 09:00 32.7 25 8.76 10.5 15 1006.5 0 19.1 21.1 31.8 83.6 78.9 272.5
07 09:00 30.3 25 7.71 8.3 6 1007.1 0 17.0 20.3 29.5 77.2 70.4 242.2
06 09:00 27.9 23 6.22 4.8 9 1007.2 0 14.0 18.9 25.7 67.0 57.1 195.5
05 09:00 33.1 35 12.53 16 6 1001.8 0 26.8 25.9 43.9 115.9 119.0 413.1
04 09:00 32.6 13 1002 0
03 09:00 30.1 23 7.01 7.1 11 1005.6 0 15.6 19.4 27.3 71.5 63.4 217.6
02 09:00 30.9 17 1006.2 0
01 09:00 36.7 25 10.8 14 15 1005.8 0 23.0 22.7 36.6 96.4 95.7 331.8
31 09:00 33.6 49 18.01 21.6 7 1006.3 0 38.1 34.3 64.5 170.8 186.4 648.2
30 09:00 34.7 42 16.35 20.1 7 1005.9 0 34.5 31.2 57.1 151.1 162.5 565.0
29 09:00 33.9 40 14.94 18.5 4 1004.1 0 31.7 29.2 52.3 138.1 146.4 508.9
28 09:00 31.5 59 19.4 22.5 6 1004.2 11 41.2 37.4 72.1 190.8 210.6 732.2
27 09:00 34.4 43 16.48 20.3 6 1003.2 0 34.9 31.4 57.7 152.6 164.4 571.7
26 09:00 34.9 36 14.17 17.9 6 1002.3 0 30.1 27.7 48.7 128.8 135.3 470.0
25 08:59 1013.1
24 09:00 35.3 35 14.06 17.6 13 1006.3 0 29.8 27.6 48.3 127.5 133.7 464.6
23 09:00 34.7 37 14.41 18 2 1007.7 0 30.5 28.3 50.0 132.0 139.0 483.0
22 09:00 33.9 37 13.82 17.3 4 1008.6 0 29.4 27.7 48.4 127.7 133.5 463.6
21 09:00 34.5 6 1009.4 0
20 09:00 34.2 17 6.45 6.1 7 1012.1 0 14.3 18.1 24.7 64.3 55.4 189.9
19 09:00 30.6 17 5.33 3 15 1012.1 0 12.1 17.5 22.5 58.4 47.1 160.3
18 09:00 28.5 20 5.59 3.5 15 1012.2 0 12.7 18.2 23.8 61.9 50.8 173.1
17 09:00 28 9 2.45 -7 13 1012 0 6.3 14.7 15.2 38.9 22.2 72.3
16 09:00 29.1 16 4.62 0.7 15 1010.8 0 10.7 16.9 20.8 54.0 41.2 139.4
15 09:00 35.3 18 7.23 7.7 9 1007.9 0 15.8 18.7 26.4 69.1 61.7 212.4
14 09:00 34.9 32 12.59 16.2 13 1011.3 0 26.8 25.8 43.6 115.0 118.0 409.4
13 09:00 33.4 44 16 19.5 9 1010.4 0 33.9 31.3 56.9 150.5 161.3 560.7
12 09:00 30.6 59 18.48 21.9 7 1010.2 39.3 36.4 69.3 183.3 200.9 698.4
11 09:04 1013.1
10 09:00 29.4 55 16.15 19.6 2 1010.7 0 34.5 33.0 60.5 160.0 171.8 597.0
09 09:00 27.5 52 13.76 16.8 7 1011.5 0 29.7 29.8 52.3 138.0 144.3 500.7
08 09:00 30.4 30 9.3 11 7 1011.3 0 20.3 22.5 34.7 91.0 87.3 301.5
07 09:00 31 26 8.32 9.4 11 1011.8 0 18.2 21.1 31.3 82.0 76.3 263.1
06 09:00 34 31 11.64 14.9 7 1009 0 24.9 24.6 40.7 107.3 108.4 375.9
05 09:00 30.5 33 10.28 12.4 15 1008.2 0 22.3 23.7 37.8 99.3 97.7 338.0
04 09:00 31 32 10.24 12.5 26 1005.4 0 22.2 23.4 37.3 98.1 96.4 333.6
03 09:00 35 41 16.22 19.9 2 1003.7 0 34.3 30.8 56.3 148.9 160.0 556.3
02 09:00 35.4 45 18.17 21.9 11 1005.7 0 38.2 33.8 63.7 168.5 184.1 640.5
01 09:00 35.4 45 18.17 21.9 7 1007.6 1 38.2 33.9 63.8 168.8 184.3 641.4
31 09:00 34.2 44 16.69 20.3 7 1007.9 0 35.3 32.0 58.9 155.8 168.1 584.4
30 09:00 29.9 59 17.8 21.1 2 1008.7 0 38.0 35.5 66.9 177.0 193.0 670.7
28 09:00 33.3 50 18.09 21.7 13 1005.2 0 38.3 34.5 65.0 172.1 188.0 653.9
27 09:00 30 61 18.5 21.7 0 1009.5 39.4 36.7 69.9 184.9 202.7 704.5
26 09:00 28.9 59 16.86 20.3 13 1011.5 0 36.1 34.4 63.9 169.0 182.8 635.0
25 09:00 24.1 59 12.91 15.7 19 1013.6 20 28.1 29.7 51.3 135.1 139.6 484.0
24 09:00 16.8 95 13.58 16 15 1015.1 9 30.1 33.6 59.4 156.7 163.7 567.0
23 09:00 19.7 83 14.09 16.7 2 1016.2 6 31.0 33.4 59.5 157.1 165.1 572.1
22 09:00 20.9 97 17.66 20.4 9 1010.5 6 38.5 39.3 74.7 197.6 215.6 748.1
21 09:00 25.5 66 15.63 18.8 0 1006.3 28 33.8 33.4 61.2 161.6 172.9 600.3
20 09:00 33.4 48 17.46 21.1 15 1007.4 0 36.9 33.5 62.5 165.4 179.7 625.0
18 09:00 35.2 22 8.79 10.5 20 1007.4 0 19.0 20.6 31.0 81.5 76.9 265.7
17 09:00 36.9 19 8.29 10 15 1004.5 0 17.9 19.5 28.9 75.7 70.4 242.9
16 09:00 37.4 21 9.4 11.7 9 1005.2 0 20.2 20.8 32.0 84.0 80.8 279.4
15 09:00 35.4 21 8.48 10 11 1006.4 0 18.4 20.1 30.0 78.7 73.6 254.1
14 09:00 34 19 7.13 7.7 11 1007 0 15.7 18.8 26.5 69.3 61.7 212.1
13 09:00 33.1 21 7.52 8 7 1009.9 0 16.5 19.6 28.0 73.4 66.3 228.2
12 09:00 35.4 24 1011.6 0
11 09:00 33.3 11 3.98 -0.3 11 1011.5 0 9.3 15.5 18.2 46.9 33.7 113.2
10 09:00 32.9 12 4.25 0.4 9 1012.9 0 9.8 15.9 19.0 49.1 36.2 122.2
09 09:00 28.2 11 3.02 -4.7 9 1015.1 0 7.4 15.4 16.8 43.0 27.2 89.9
08 09:00 26.7 21 5.32 2.6 17 1016.8 0 12.2 18.3 23.6 61.4 49.4 168.1
07 09:00 27.5 16 4.23 -0.7 9 1014.4 0 9.9 16.8 20.2 52.2 38.5 129.5
06 09:00 30.3 15 4.62 0.7 19 1010.8 4 10.7 16.7 20.5 53.2 40.6 137.5
05 09:00 40 70 35.76 33.6 15 1006.8 0 73.8 64.4 140.4 372.3 434.8 1511.8
04 09:00 39.1 97 47.35 38.6 13 1010.1 0 98.0 93.2 212.3 562.6 667.3 2315.2
03 09:00 33 100 35.61 33 13 1011.6 0 75.0 70.3 154.2 408.7 477.5 1658.3
02 09:00 31.1 30 9.65 11.9 19 1012 0 21.0 22.8 35.5 93.4 90.4 312.4
01 09:00 37.7 26 11.82 15.1 13 1009.4 0 25.0 23.9 39.5 104.2 105.5 366.2
30 09:00 39.2 11 5.4 4.3 33 1007.3 0 12.0 16.0 20.4 53.1 43.0 146.7
29 09:00 38.4 15 7.07 7.7 17 1008.2 0 15.4 18.0 25.1 65.5 58.1 199.8
28 09:00 38.7 20 9.57 11.8 26 1008.3 0 20.4 20.8 32.1 84.4 81.4 281.6
27 09:00 37.3 14 6.24 5.7 0 1006.8 0 13.7 17.2 23.1 60.2 51.3 175.7
26 09:00 35.4 11 4.44 0.6 9 1007.3 0 10.2 15.6 18.8 48.7 36.6 123.8
25 09:00 32.1 12 4.07 -0.2 13 1007.9 0 9.5 15.7 18.6 48.0 34.8 117.1
24 09:00 31.6 25 8.26 9.6 19 1008.9 0 18.1 20.8 30.8 80.7 75.0 258.5
23 09:00 35.4 20 8.08 9.1 9 1010.4 0 17.5 19.8 29.0 75.8 70.0 241.2
21 09:00 36.1 24 1011.5 0
20 09:00 34.6 21 8.13 9.6 17 1013.5 0 17.7 20.1 29.5 77.2 71.3 245.9
19 09:00 36.9 19 8.29 9.8 9 1012.2 0 17.9 19.8 29.1 76.3 70.8 244.4
18 09:00 29.1 16 4.62 0.7 7 1014.4 0 10.7 17.0 20.9 54.2 41.3 139.8
17 09:00 30.6 30 9.4 11.1 15 1015.6 0 20.5 22.7 35.1 92.1 88.5 305.6
16 09:00 34.9 7 1012.8 1
15 09:00 37.9 23 10.56 13.7 13 1009.6 0 22.5 22.3 35.5 93.3 92.2 319.5
14 09:00 32.8 23 8.1 8.9 6 1011.5 0 17.7 20.4 29.9 78.5 72.4 249.7

Last Refresh: 27-Feb-2021 02:59:56

Most of the information presented on this site is sourced from the Bureau of Meteorology.  Copyright in all material sourced from the Bureau of Meteorology resides with the Commonwealth of Australia.